createdAt,value
2023-06-14T00:02:11.664Z,14.40
2023-06-14T00:04:42.626Z,14.30
2023-06-14T00:07:14.832Z,14.20
2023-06-14T00:09:43.622Z,14.10
2023-06-14T00:12:11.656Z,14.00
2023-06-14T00:14:39.703Z,14.00
2023-06-14T00:17:08.368Z,14.00
2023-06-14T00:19:37.581Z,14.00
2023-06-14T00:22:06.223Z,14.10
2023-06-14T00:24:35.568Z,14.10
2023-06-14T00:27:03.705Z,14.10
2023-06-14T00:29:31.710Z,14.20
2023-06-14T00:31:59.671Z,14.20
2023-06-14T00:34:28.621Z,14.30
2023-06-14T00:36:56.709Z,14.40
2023-06-14T00:39:24.739Z,14.40
2023-06-14T00:41:54.127Z,14.30
2023-06-14T00:44:22.527Z,14.20
2023-06-14T00:46:50.853Z,14.10
2023-06-14T00:49:19.684Z,13.90
2023-06-14T00:51:47.911Z,13.70
2023-06-14T00:54:15.975Z,13.50
2023-06-14T00:56:46.841Z,13.50
2023-06-14T00:59:16.698Z,13.50
2023-06-14T01:01:44.805Z,13.40
2023-06-14T01:04:13.055Z,13.30
2023-06-14T01:06:51.868Z,13.30
2023-06-14T01:09:26.741Z,13.30
2023-06-14T01:12:02.864Z,13.20
2023-06-14T01:14:36.605Z,13.20
2023-06-14T01:17:05.991Z,13.20
2023-06-14T01:19:35.450Z,13.20
2023-06-14T01:22:04.278Z,13.30
2023-06-14T01:24:35.801Z,13.30
2023-06-14T01:27:05.297Z,13.40
2023-06-14T01:29:34.015Z,13.50
2023-06-14T01:32:03.522Z,13.50
2023-06-14T01:34:33.479Z,13.60
2023-06-14T01:37:03.779Z,13.60
2023-06-14T01:39:35.076Z,13.60
2023-06-14T01:42:03.688Z,13.50
2023-06-14T01:44:32.477Z,13.30
2023-06-14T01:47:03.294Z,13.30
2023-06-14T01:49:31.517Z,13.20
2023-06-14T01:51:59.531Z,13.10
2023-06-14T01:54:28.444Z,13.10
2023-06-14T01:56:58.379Z,13.00
2023-06-14T01:59:26.504Z,12.90
2023-06-14T02:01:55.241Z,12.80
2023-06-14T02:04:23.353Z,12.70
2023-06-14T02:06:51.783Z,12.60
2023-06-14T02:09:19.854Z,12.60
2023-06-14T02:11:47.906Z,12.60
2023-06-14T02:14:18.130Z,12.60
2023-06-14T02:16:50.468Z,12.70
2023-06-14T02:19:18.612Z,12.70
2023-06-14T02:21:46.925Z,12.70
2023-06-14T02:24:15.751Z,12.80
2023-06-14T02:26:43.778Z,12.80
2023-06-14T02:29:17.468Z,12.80
2023-06-14T02:31:47.928Z,12.80
2023-06-14T02:34:17.868Z,12.80
2023-06-14T02:36:46.643Z,12.80
2023-06-14T02:39:14.675Z,12.70
2023-06-14T02:41:42.602Z,12.60
2023-06-14T02:44:13.838Z,12.50
2023-06-14T02:46:44.813Z,12.40
2023-06-14T02:49:13.079Z,12.20
2023-06-14T02:51:41.332Z,12.20
2023-06-14T02:54:09.351Z,12.10
2023-06-14T02:56:37.953Z,12.10
2023-06-14T02:59:05.928Z,12.20
2023-06-14T03:01:35.968Z,12.10
2023-06-14T03:04:09.832Z,12.10
2023-06-14T03:06:40.797Z,12.20
2023-06-14T03:09:10.428Z,12.20
2023-06-14T03:11:40.780Z,12.20
2023-06-14T03:14:09.296Z,12.20
2023-06-14T03:16:38.748Z,12.10
2023-06-14T03:19:08.834Z,12.10
2023-06-14T03:21:37.046Z,12.10
2023-06-14T03:24:06.301Z,12.10
2023-06-14T03:26:38.017Z,12.00
2023-06-14T03:29:06.254Z,12.10
2023-06-14T03:31:34.712Z,12.10
2023-06-14T03:34:04.784Z,12.00
2023-06-14T03:36:35.178Z,12.10
2023-06-14T03:39:03.366Z,12.10
2023-06-14T03:41:31.544Z,12.10
2023-06-14T03:43:59.642Z,12.10
2023-06-14T03:46:27.699Z,12.10
2023-06-14T03:48:56.063Z,12.20
2023-06-14T03:51:24.097Z,12.10
2023-06-14T03:54:11.324Z,12.10
2023-06-14T03:56:41.691Z,12.10
2023-06-14T03:59:12.087Z,12.10
2023-06-14T04:01:46.902Z,12.20
2023-06-14T04:04:17.847Z,12.20
2023-06-14T04:06:49.181Z,12.20
2023-06-14T04:09:20.096Z,12.20
2023-06-14T04:11:48.044Z,12.20
2023-06-14T04:14:15.985Z,12.20
2023-06-14T04:16:44.178Z,12.20
2023-06-14T04:19:12.216Z,12.20
2023-06-14T04:21:40.574Z,12.30
2023-06-14T04:24:14.016Z,12.30
2023-06-14T04:26:46.368Z,12.50
2023-06-14T04:29:17.395Z,12.50
2023-06-14T04:31:49.222Z,12.60
2023-06-14T04:34:18.597Z,12.70
2023-06-14T04:36:56.814Z,12.80
2023-06-14T04:39:31.114Z,12.80
2023-06-14T04:42:04.672Z,12.90
2023-06-14T04:44:33.490Z,12.90
2023-06-14T04:47:07.990Z,13.00
2023-06-14T04:49:36.052Z,13.10
2023-06-14T04:52:06.415Z,13.20
2023-06-14T04:54:42.538Z,13.40
2023-06-14T04:57:15.354Z,13.60
2023-06-14T04:59:45.314Z,13.80
2023-06-14T05:02:13.923Z,14.00
2023-06-14T05:04:42.182Z,14.10
2023-06-14T05:07:10.526Z,14.30
2023-06-14T05:09:39.146Z,14.50
2023-06-14T05:12:09.462Z,14.60
2023-06-14T05:14:39.090Z,14.90
2023-06-14T05:17:08.343Z,15.00
2023-06-14T05:19:36.824Z,15.20
2023-06-14T05:22:05.466Z,15.30
2023-06-14T05:24:33.530Z,15.50
2023-06-14T05:27:01.419Z,15.60
2023-06-14T05:29:30.760Z,15.70
2023-06-14T05:32:00.975Z,15.80
2023-06-14T05:34:29.502Z,15.90
2023-06-14T05:36:58.017Z,16.10
2023-06-14T05:39:26.272Z,16.20
2023-06-14T05:41:54.251Z,16.40
2023-06-14T05:44:22.340Z,16.60
2023-06-14T05:46:50.467Z,16.70
2023-06-14T05:49:20.400Z,16.90
2023-06-14T05:51:49.074Z,17.00
2023-06-14T05:54:17.331Z,17.10
2023-06-14T05:56:45.665Z,17.20
2023-06-14T05:59:14.095Z,17.30
2023-06-14T06:01:42.344Z,17.40
2023-06-14T06:04:10.927Z,17.40
2023-06-14T06:06:41.025Z,17.50
2023-06-14T06:09:09.550Z,17.70
2023-06-14T06:11:51.907Z,17.70
2023-06-14T06:14:21.448Z,17.80
2023-06-14T06:16:49.435Z,18.00
2023-06-14T06:19:17.437Z,18.20
2023-06-14T06:21:46.711Z,18.30
2023-06-14T06:24:14.657Z,18.40
2023-06-14T06:26:42.697Z,18.50
2023-06-14T06:29:11.563Z,18.60
2023-06-14T06:31:39.548Z,18.70
2023-06-14T06:34:07.513Z,18.80
2023-06-14T06:36:36.207Z,19.00
2023-06-14T06:39:10.977Z,19.00
2023-06-14T06:41:40.801Z,19.00
2023-06-14T06:44:10.853Z,19.20
2023-06-14T06:46:42.366Z,19.20
2023-06-14T06:49:10.688Z,19.30
2023-06-14T06:51:38.845Z,19.30
2023-06-14T06:54:09.194Z,19.30
2023-06-14T06:56:37.233Z,19.50
2023-06-14T06:59:05.227Z,19.60
2023-06-14T07:01:35.053Z,19.80
2023-06-14T07:04:04.438Z,20.00
2023-06-14T07:06:32.330Z,20.10
2023-06-14T07:09:02.646Z,20.20
2023-06-14T07:11:32.205Z,20.10
2023-06-14T07:14:00.172Z,20.10
2023-06-14T07:16:28.201Z,20.20
2023-06-14T07:18:56.348Z,20.10
2023-06-14T07:21:24.522Z,20.20
2023-06-14T07:23:52.448Z,20.30
2023-06-14T07:26:20.590Z,20.30
2023-06-14T07:28:50.079Z,20.30
2023-06-14T07:31:20.177Z,20.30
2023-06-14T07:33:48.170Z,20.40
2023-06-14T07:36:16.640Z,20.50
2023-06-14T07:38:44.535Z,20.40
2023-06-14T07:41:12.527Z,20.40
2023-06-14T07:43:40.441Z,20.50
2023-06-14T07:46:10.404Z,20.60
2023-06-14T07:48:38.919Z,20.60
2023-06-14T07:51:07.147Z,20.60
2023-06-14T07:53:35.274Z,20.50
2023-06-14T07:56:03.747Z,20.50
2023-06-14T07:58:31.734Z,20.40
2023-06-14T08:01:00.572Z,20.50
2023-06-14T08:03:31.142Z,20.60
2023-06-14T08:05:59.679Z,20.60
2023-06-14T08:08:27.610Z,20.80
2023-06-14T08:10:55.785Z,20.90
2023-06-14T08:13:23.806Z,21.00
2023-06-14T08:15:52.086Z,21.10
2023-06-14T08:18:20.109Z,21.20
2023-06-14T08:20:49.665Z,21.30
2023-06-14T08:23:20.203Z,21.40
2023-06-14T08:25:48.459Z,21.60
2023-06-14T08:28:16.578Z,21.80
2023-06-14T08:30:44.735Z,22.00
2023-06-14T08:33:17.286Z,22.10
2023-06-14T08:35:45.956Z,22.10
2023-06-14T08:38:15.347Z,21.90
2023-06-14T08:40:44.279Z,21.90
2023-06-14T08:43:13.332Z,21.90
2023-06-14T08:45:41.568Z,21.90
2023-06-14T08:48:10.349Z,22.00
2023-06-14T08:50:42.822Z,21.90
2023-06-14T08:53:20.829Z,21.90
2023-06-14T08:55:49.864Z,22.10
2023-06-14T08:58:18.555Z,22.20
2023-06-14T09:00:47.731Z,22.30
2023-06-14T09:03:16.083Z,22.40
2023-06-14T09:05:44.869Z,22.40
2023-06-14T09:08:13.282Z,22.40
2023-06-14T09:10:42.937Z,22.50
2023-06-14T09:13:11.075Z,22.50
2023-06-14T09:15:39.073Z,22.60
2023-06-14T09:18:07.881Z,22.70
2023-06-14T09:20:35.907Z,22.70
2023-06-14T09:23:06.508Z,22.70
2023-06-14T09:25:40.318Z,22.90
2023-06-14T09:28:12.649Z,22.90
2023-06-14T09:30:41.223Z,22.90
2023-06-14T09:33:09.528Z,22.90
2023-06-14T09:35:38.120Z,22.90
2023-06-14T09:38:07.754Z,23.00
2023-06-14T09:40:38.005Z,23.20
2023-06-14T09:43:09.385Z,23.50
2023-06-14T09:45:40.946Z,23.60
2023-06-14T09:48:09.619Z,23.60
2023-06-14T09:50:37.763Z,23.70
2023-06-14T09:53:08.892Z,23.80
2023-06-14T09:55:39.519Z,23.90
2023-06-14T09:58:09.582Z,24.20
2023-06-14T10:00:41.606Z,24.30
2023-06-14T10:03:15.328Z,24.20
2023-06-14T10:05:46.627Z,24.50
2023-06-14T10:08:17.957Z,24.80
2023-06-14T10:10:46.320Z,25.10
2023-06-14T10:13:15.885Z,25.40
2023-06-14T10:15:54.696Z,25.50
2023-06-14T10:18:30.379Z,25.60
2023-06-14T10:21:09.342Z,25.40
2023-06-14T10:23:42.532Z,25.30
2023-06-14T10:26:11.147Z,25.30
2023-06-14T10:28:40.039Z,25.40
2023-06-14T10:31:11.125Z,25.50
2023-06-14T10:33:49.942Z,25.70
2023-06-14T10:36:29.095Z,26.10
2023-06-14T10:39:01.868Z,26.40
2023-06-14T10:41:31.067Z,26.20
2023-06-14T10:44:28.264Z,26.10
2023-06-14T10:47:00.558Z,26.10
2023-06-14T10:49:43.122Z,26.20
2023-06-14T10:52:19.805Z,26.60
2023-06-14T10:55:20.510Z,26.80
2023-06-14T10:57:53.728Z,26.70
2023-06-14T11:00:26.201Z,26.60
2023-06-14T11:03:33.426Z,26.40
2023-06-14T11:06:01.972Z,26.50
2023-06-14T11:09:13.165Z,26.30
2023-06-14T11:11:44.094Z,26.00
2023-06-14T11:14:13.300Z,26.20
2023-06-14T11:16:41.478Z,26.70
2023-06-14T11:19:12.001Z,27.10
2023-06-14T11:21:42.958Z,27.60
2023-06-14T11:24:13.118Z,27.90
2023-06-14T11:26:42.507Z,28.40
2023-06-14T11:29:10.542Z,28.30
2023-06-14T11:31:38.686Z,28.20
2023-06-14T11:34:07.763Z,27.60
2023-06-14T11:36:37.459Z,27.10
2023-06-14T11:39:08.072Z,27.10
2023-06-14T11:41:39.792Z,27.10
2023-06-14T11:44:08.548Z,27.10
2023-06-14T11:46:37.334Z,27.10
2023-06-14T11:49:07.927Z,27.00
2023-06-14T11:51:37.933Z,26.90
2023-06-14T11:54:07.527Z,26.90
2023-06-14T11:56:36.138Z,26.90
2023-06-14T11:59:06.813Z,26.80
2023-06-14T12:01:40.608Z,26.60
2023-06-14T12:04:09.036Z,26.70
2023-06-14T12:06:40.873Z,27.30
2023-06-14T12:09:14.998Z,27.80
2023-06-14T12:11:43.136Z,28.40
2023-06-14T12:14:11.925Z,28.50
2023-06-14T12:16:41.151Z,28.80
2023-06-14T12:19:15.602Z,28.90
2023-06-14T12:21:48.979Z,29.20
2023-06-14T12:24:17.374Z,29.40
2023-06-14T12:26:45.771Z,29.20
2023-06-14T12:29:14.769Z,29.00
2023-06-14T12:31:43.372Z,28.30
2023-06-14T12:34:11.929Z,28.30
2023-06-14T12:36:45.090Z,28.30
2023-06-14T12:39:15.289Z,28.50
2023-06-14T12:41:43.510Z,28.70
2023-06-14T12:44:12.274Z,29.20
2023-06-14T12:46:42.556Z,29.30
2023-06-14T12:49:11.355Z,29.20
2023-06-14T12:51:39.742Z,29.00
2023-06-14T12:54:08.613Z,29.50
2023-06-14T12:56:37.973Z,29.80
2023-06-14T12:59:07.173Z,30.00
2023-06-14T13:01:35.438Z,29.90
2023-06-14T13:04:04.067Z,29.70
2023-06-14T13:06:32.500Z,29.50
2023-06-14T13:09:00.660Z,28.90
2023-06-14T13:11:29.032Z,28.40
2023-06-14T13:13:58.472Z,29.00
2023-06-14T13:16:26.584Z,29.50
2023-06-14T13:18:54.705Z,30.10
2023-06-14T13:21:22.642Z,31.10
2023-06-14T13:23:50.720Z,31.70
2023-06-14T13:26:19.508Z,31.80
2023-06-14T13:28:47.538Z,32.30
2023-06-14T13:31:16.761Z,32.60
2023-06-14T13:33:44.706Z,32.80
2023-06-14T13:36:12.612Z,32.90
2023-06-14T13:38:40.502Z,33.50
2023-06-14T13:41:08.420Z,33.30
2023-06-14T13:43:36.474Z,33.00
2023-06-14T13:46:04.499Z,33.60
2023-06-14T13:48:33.946Z,33.70
2023-06-14T13:51:02.308Z,33.50
2023-06-14T13:53:30.273Z,33.40
2023-06-14T13:55:58.279Z,34.10
2023-06-14T13:58:26.442Z,34.80
2023-06-14T14:00:55.589Z,33.90
2023-06-14T14:03:23.592Z,32.20
2023-06-14T14:05:52.860Z,31.50
2023-06-14T14:08:20.922Z,31.60
2023-06-14T14:10:48.885Z,31.60
2023-06-14T14:13:16.828Z,31.40
2023-06-14T14:15:44.769Z,30.80
2023-06-14T14:18:12.807Z,30.20
2023-06-14T14:20:40.821Z,29.70
2023-06-14T14:23:10.270Z,29.30
2023-06-14T14:25:38.251Z,28.80
2023-06-14T14:28:06.298Z,28.10
2023-06-14T14:30:34.791Z,27.60
2023-06-14T14:33:02.764Z,27.70
2023-06-14T14:35:31.842Z,27.90
2023-06-14T14:37:59.851Z,28.40
2023-06-14T14:40:29.212Z,28.80
2023-06-14T14:42:57.086Z,28.90
2023-06-14T14:45:24.958Z,28.50
2023-06-14T14:47:56.110Z,28.00
2023-06-14T14:50:24.477Z,27.70
2023-06-14T14:52:52.434Z,28.10
2023-06-14T14:55:20.415Z,29.00
2023-06-14T14:57:49.958Z,30.10
2023-06-14T15:00:19.128Z,30.30
2023-06-14T15:02:47.440Z,29.90
2023-06-14T15:05:15.528Z,29.20
2023-06-14T15:07:43.416Z,28.70
2023-06-14T15:10:11.618Z,28.10
2023-06-14T15:12:39.585Z,27.70
2023-06-14T15:15:10.411Z,27.20
2023-06-14T15:17:38.589Z,26.90
2023-06-14T15:20:08.048Z,26.70
2023-06-14T15:22:36.020Z,26.90
2023-06-14T15:25:04.404Z,28.20
2023-06-14T15:27:32.689Z,29.80
2023-06-14T15:30:00.622Z,30.70
2023-06-14T15:32:29.964Z,30.80
2023-06-14T15:34:57.929Z,30.60
2023-06-14T15:37:25.906Z,30.30
2023-06-14T15:39:53.868Z,29.20
2023-06-14T15:42:21.742Z,29.10
2023-06-14T15:44:49.729Z,29.00
2023-06-14T15:47:17.675Z,28.40
2023-06-14T15:49:47.066Z,27.80
2023-06-14T15:52:15.265Z,27.60
2023-06-14T15:54:43.169Z,28.00
2023-06-14T15:57:12.496Z,29.00
2023-06-14T15:59:40.492Z,29.70
2023-06-14T16:02:08.602Z,29.60
2023-06-14T16:04:36.570Z,29.20
2023-06-14T16:07:06.144Z,28.50
2023-06-14T16:09:34.519Z,28.10
2023-06-14T16:12:03.172Z,27.70
2023-06-14T16:14:31.111Z,27.70
2023-06-14T16:17:02.366Z,28.80
2023-06-14T16:19:30.484Z,30.20
2023-06-14T16:21:58.363Z,31.00
2023-06-14T16:24:27.811Z,32.10
2023-06-14T16:26:56.180Z,31.90
2023-06-14T16:29:24.282Z,31.30
2023-06-14T16:31:52.258Z,30.60
2023-06-14T16:34:20.390Z,30.40
2023-06-14T16:36:48.416Z,31.10
2023-06-14T16:39:16.614Z,31.90
2023-06-14T16:41:45.917Z,33.00
2023-06-14T16:44:15.332Z,33.70
2023-06-14T16:46:43.550Z,33.90
2023-06-14T16:49:11.683Z,33.60
2023-06-14T16:51:39.688Z,33.60
2023-06-14T16:54:07.630Z,33.30
2023-06-14T16:56:35.632Z,32.90
2023-06-14T16:59:04.932Z,31.60
2023-06-14T17:01:34.980Z,31.50
2023-06-14T17:04:03.218Z,31.70
2023-06-14T17:06:31.502Z,31.00
2023-06-14T17:08:59.437Z,31.20
2023-06-14T17:11:27.540Z,31.10
2023-06-14T17:13:57.110Z,30.50
2023-06-14T17:16:26.617Z,29.60
2023-06-14T17:18:54.621Z,29.20
2023-06-14T17:21:22.716Z,29.40
2023-06-14T17:23:51.363Z,29.00
2023-06-14T17:26:19.574Z,28.90
2023-06-14T17:28:47.518Z,29.00
2023-06-14T17:31:15.530Z,29.00
2023-06-14T17:33:44.858Z,28.90
2023-06-14T17:36:13.427Z,28.80
2023-06-14T17:38:41.454Z,28.60
2023-06-14T17:41:10.742Z,28.40
2023-06-14T17:43:39.185Z,27.80
2023-06-14T17:46:07.549Z,27.50
2023-06-14T17:48:35.982Z,27.30
2023-06-14T17:51:06.225Z,26.90
2023-06-14T17:53:34.746Z,26.60
2023-06-14T17:56:05.036Z,26.50
2023-06-14T17:58:32.968Z,26.40
2023-06-14T18:01:01.001Z,26.10
2023-06-14T18:03:29.118Z,25.80
2023-06-14T18:05:57.173Z,25.40
2023-06-14T18:08:26.552Z,25.20
2023-06-14T18:10:54.640Z,25.00
2023-06-14T18:13:22.811Z,24.80
2023-06-14T18:15:50.924Z,24.60
2023-06-14T18:18:19.168Z,24.40
2023-06-14T18:20:47.266Z,24.30
2023-06-14T18:23:15.304Z,24.20
2023-06-14T18:25:44.725Z,24.10
2023-06-14T18:28:12.762Z,24.00
2023-06-14T18:30:40.679Z,23.80
2023-06-14T18:33:09.905Z,23.70
2023-06-14T18:35:38.350Z,23.60
2023-06-14T18:38:07.315Z,23.50
2023-06-14T18:40:35.636Z,23.40
2023-06-14T18:43:05.090Z,23.30
2023-06-14T18:45:33.475Z,23.20
2023-06-14T18:48:01.701Z,23.20
2023-06-14T18:50:29.752Z,23.10
2023-06-14T18:52:57.710Z,23.10
2023-06-14T18:55:25.684Z,23.10
2023-06-14T18:57:53.697Z,23.00
2023-06-14T19:00:22.977Z,22.90
2023-06-14T19:02:51.049Z,22.90
2023-06-14T19:05:21.730Z,22.80
2023-06-14T19:07:51.517Z,22.70
2023-06-14T19:10:19.731Z,22.70
2023-06-14T19:12:47.864Z,22.60
2023-06-14T19:15:16.645Z,22.50
2023-06-14T19:17:55.709Z,22.50
2023-06-14T19:20:24.055Z,22.40
2023-06-14T19:22:52.153Z,22.40
2023-06-14T19:25:20.439Z,22.30
2023-06-14T19:27:48.873Z,22.30
2023-06-14T19:30:17.348Z,22.20
2023-06-14T19:32:45.679Z,22.20
2023-06-14T19:35:15.195Z,22.20
2023-06-14T19:37:43.255Z,22.10
2023-06-14T19:40:12.589Z,22.10
2023-06-14T19:42:41.043Z,22.00
2023-06-14T19:45:10.124Z,22.00
2023-06-14T19:47:38.072Z,21.90
2023-06-14T19:50:07.886Z,21.90
2023-06-14T19:52:37.525Z,21.90
2023-06-14T19:55:06.200Z,21.80
2023-06-14T19:57:34.277Z,21.70
2023-06-14T20:00:04.412Z,21.70
2023-06-14T20:02:36.524Z,21.60
2023-06-14T20:05:04.695Z,21.60
2023-06-14T20:07:33.259Z,21.60
2023-06-14T20:10:02.545Z,21.60
2023-06-14T20:12:30.531Z,21.50
2023-06-14T20:14:58.417Z,21.30
2023-06-14T20:17:26.324Z,21.20
2023-06-14T20:19:54.277Z,21.00
2023-06-14T20:22:22.202Z,20.80
2023-06-14T20:24:50.166Z,20.60
2023-06-14T20:27:19.642Z,20.40
2023-06-14T20:29:47.629Z,20.20
2023-06-14T20:32:15.679Z,20.10
2023-06-14T20:34:43.719Z,19.90
2023-06-14T20:37:11.710Z,19.90
2023-06-14T20:39:39.611Z,19.80
2023-06-14T20:42:17.169Z,19.70
2023-06-14T20:44:55.589Z,19.60
2023-06-14T20:47:23.708Z,19.40
2023-06-14T20:49:51.782Z,19.30
2023-06-14T20:52:19.950Z,19.10
2023-06-14T20:54:48.526Z,19.00
2023-06-14T20:57:18.885Z,18.90
2023-06-14T20:59:47.172Z,18.70
2023-06-14T21:02:18.662Z,18.70
2023-06-14T21:04:47.223Z,18.60
2023-06-14T21:07:15.660Z,18.60
2023-06-14T21:09:43.694Z,18.50
2023-06-14T21:12:12.983Z,18.40
2023-06-14T21:14:41.664Z,18.30
2023-06-14T21:17:10.137Z,18.20
2023-06-14T21:19:42.538Z,18.00
2023-06-14T21:22:11.790Z,17.90
2023-06-14T21:24:39.709Z,17.90
2023-06-14T21:27:08.575Z,17.80
2023-06-14T21:29:39.507Z,17.70
2023-06-14T21:32:11.619Z,17.60
2023-06-14T21:34:43.907Z,17.50
2023-06-14T21:37:12.134Z,17.40
2023-06-14T21:39:40.551Z,17.40
2023-06-14T21:42:09.343Z,17.30
2023-06-14T21:44:41.694Z,17.20
2023-06-14T21:47:10.356Z,17.20
2023-06-14T21:49:38.404Z,17.20
2023-06-14T21:52:09.376Z,17.20
2023-06-14T21:54:37.329Z,17.10
2023-06-14T21:57:06.190Z,17.00
2023-06-14T21:59:34.109Z,17.00
2023-06-14T22:02:02.075Z,16.90
2023-06-14T22:04:30.151Z,16.80
2023-06-14T22:06:58.504Z,16.80
2023-06-14T22:09:27.900Z,16.80
2023-06-14T22:11:57.113Z,16.70
2023-06-14T22:14:25.195Z,16.70
2023-06-14T22:16:53.481Z,16.60
2023-06-14T22:19:21.538Z,16.60
2023-06-14T22:21:52.123Z,16.50
2023-06-14T22:24:20.594Z,16.50
2023-06-14T22:26:49.976Z,16.40
2023-06-14T22:29:18.449Z,16.30
2023-06-14T22:31:46.397Z,16.30
2023-06-14T22:34:14.433Z,16.20
2023-06-14T22:36:42.950Z,16.20
2023-06-14T22:39:12.514Z,16.10
2023-06-14T22:41:41.221Z,16.10
2023-06-14T22:44:10.537Z,16.00
2023-06-14T22:46:38.495Z,16.00
2023-06-14T22:49:07.147Z,16.00
2023-06-14T22:51:35.324Z,16.00
2023-06-14T22:54:03.408Z,15.90
2023-06-14T22:56:31.360Z,15.90
2023-06-14T22:59:03.148Z,15.90
2023-06-14T23:01:32.501Z,15.90
2023-06-14T23:04:00.429Z,15.80
2023-06-14T23:06:28.517Z,15.70
2023-06-14T23:08:57.581Z,15.60
2023-06-14T23:11:26.408Z,15.50
2023-06-14T23:13:55.255Z,15.60
2023-06-14T23:16:24.492Z,15.50
2023-06-14T23:18:54.159Z,15.50
2023-06-14T23:21:22.209Z,15.40
2023-06-14T23:23:51.188Z,15.40
2023-06-14T23:26:21.880Z,15.40
2023-06-14T23:28:54.773Z,15.40
2023-06-14T23:31:23.923Z,15.40
2023-06-14T23:33:54.352Z,15.40
2023-06-14T23:36:22.574Z,15.40
2023-06-14T23:38:50.681Z,15.30
2023-06-14T23:41:18.669Z,15.20
2023-06-14T23:43:47.086Z,15.20
2023-06-14T23:46:16.555Z,15.20
2023-06-14T23:48:44.970Z,15.10
2023-06-14T23:51:14.185Z,15.10
2023-06-14T23:53:42.124Z,15.10
2023-06-14T23:56:10.690Z,15.10
2023-06-14T23:58:38.904Z,15.10
